sensor_id;sensor_type;location;lat;lon;timestamp;temperature;humidity
11035;DHT22;5571;48.110;-1.706;2023-05-07T00:00:28;15.70;99.90
11035;DHT22;5571;48.110;-1.706;2023-05-07T00:02:53;15.70;99.90
11035;DHT22;5571;48.110;-1.706;2023-05-07T00:05:19;15.70;99.90
11035;DHT22;5571;48.110;-1.706;2023-05-07T00:07:45;15.80;99.90
11035;DHT22;5571;48.110;-1.706;2023-05-07T00:10:10;15.80;99.90
11035;DHT22;5571;48.110;-1.706;2023-05-07T00:12:38;15.80;99.90
11035;DHT22;5571;48.110;-1.706;2023-05-07T00:15:04;15.80;99.90
11035;DHT22;5571;48.110;-1.706;2023-05-07T00:17:30;15.80;99.90
11035;DHT22;5571;48.110;-1.706;2023-05-07T00:19:56;15.80;99.90
11035;DHT22;5571;48.110;-1.706;2023-05-07T00:22:21;15.70;99.90
11035;DHT22;5571;48.110;-1.706;2023-05-07T00:24:47;15.70;99.90
11035;DHT22;5571;48.110;-1.706;2023-05-07T00:27:12;15.70;99.90
11035;DHT22;5571;48.110;-1.706;2023-05-07T00:29:38;15.70;99.90
11035;DHT22;5571;48.110;-1.706;2023-05-07T00:32:04;15.70;99.90
11035;DHT22;5571;48.110;-1.706;2023-05-07T00:34:30;15.70;99.90
11035;DHT22;5571;48.110;-1.706;2023-05-07T00:36:56;15.70;99.90
11035;DHT22;5571;48.110;-1.706;2023-05-07T00:39:21;15.70;99.90
11035;DHT22;5571;48.110;-1.706;2023-05-07T00:41:47;15.60;99.90
11035;DHT22;5571;48.110;-1.706;2023-05-07T00:44:13;15.70;99.90
11035;DHT22;5571;48.110;-1.706;2023-05-07T00:46:40;15.60;99.90
11035;DHT22;5571;48.110;-1.706;2023-05-07T00:49:06;15.60;99.90
11035;DHT22;5571;48.110;-1.706;2023-05-07T00:51:32;15.60;99.90
11035;DHT22;5571;48.110;-1.706;2023-05-07T00:54:02;15.60;99.90
11035;DHT22;5571;48.110;-1.706;2023-05-07T00:56:28;15.60;99.90
11035;DHT22;5571;48.110;-1.706;2023-05-07T00:58:53;15.50;99.90
11035;DHT22;5571;48.110;-1.706;2023-05-07T01:01:19;15.50;99.90
11035;DHT22;5571;48.110;-1.706;2023-05-07T01:03:45;15.50;99.90
11035;DHT22;5571;48.110;-1.706;2023-05-07T01:06:11;15.50;99.90
11035;DHT22;5571;48.110;-1.706;2023-05-07T01:08:39;15.50;99.90
11035;DHT22;5571;48.110;-1.706;2023-05-07T01:11:06;15.50;99.90
11035;DHT22;5571;48.110;-1.706;2023-05-07T01:13:32;15.40;99.90
11035;DHT22;5571;48.110;-1.706;2023-05-07T01:15:57;15.40;99.90
11035;DHT22;5571;48.110;-1.706;2023-05-07T01:18:23;15.40;99.90
11035;DHT22;5571;48.110;-1.706;2023-05-07T01:20:49;15.30;99.90
11035;DHT22;5571;48.110;-1.706;2023-05-07T01:23:15;15.30;99.90
11035;DHT22;5571;48.110;-1.706;2023-05-07T01:25:41;15.20;99.90
11035;DHT22;5571;48.110;-1.706;2023-05-07T01:28:06;15.20;99.90
11035;DHT22;5571;48.110;-1.706;2023-05-07T01:30:33;15.20;99.90
11035;DHT22;5571;48.110;-1.706;2023-05-07T01:33:06;15.20;99.90
11035;DHT22;5571;48.110;-1.706;2023-05-07T01:35:37;15.20;99.90
11035;DHT22;5571;48.110;-1.706;2023-05-07T01:38:04;15.20;99.90
11035;DHT22;5571;48.110;-1.706;2023-05-07T01:40:31;15.20;99.90
11035;DHT22;5571;48.110;-1.706;2023-05-07T01:42:57;15.20;99.90
11035;DHT22;5571;48.110;-1.706;2023-05-07T01:45:23;15.20;99.90
11035;DHT22;5571;48.110;-1.706;2023-05-07T01:47:49;15.20;99.90
11035;DHT22;5571;48.110;-1.706;2023-05-07T01:50:17;15.20;99.90
11035;DHT22;5571;48.110;-1.706;2023-05-07T01:52:43;15.10;99.90
11035;DHT22;5571;48.110;-1.706;2023-05-07T01:55:09;15.10;99.90
11035;DHT22;5571;48.110;-1.706;2023-05-07T01:57:35;15.00;99.90
11035;DHT22;5571;48.110;-1.706;2023-05-07T02:00:01;15.10;99.90
11035;DHT22;5571;48.110;-1.706;2023-05-07T02:02:28;15.00;99.90
11035;DHT22;5571;48.110;-1.706;2023-05-07T02:04:53;15.00;99.90
11035;DHT22;5571;48.110;-1.706;2023-05-07T02:07:19;15.00;99.90
11035;DHT22;5571;48.110;-1.706;2023-05-07T02:09:45;15.00;99.90
11035;DHT22;5571;48.110;-1.706;2023-05-07T02:12:10;15.00;99.90
11035;DHT22;5571;48.110;-1.706;2023-05-07T02:14:36;14.90;99.90
11035;DHT22;5571;48.110;-1.706;2023-05-07T02:17:01;14.90;99.90
11035;DHT22;5571;48.110;-1.706;2023-05-07T02:19:27;14.90;99.90
11035;DHT22;5571;48.110;-1.706;2023-05-07T02:21:53;15.00;99.90
11035;DHT22;5571;48.110;-1.706;2023-05-07T02:24:18;15.00;99.90
11035;DHT22;5571;48.110;-1.706;2023-05-07T02:26:44;14.90;99.90
11035;DHT22;5571;48.110;-1.706;2023-05-07T02:29:09;14.90;99.90
11035;DHT22;5571;48.110;-1.706;2023-05-07T02:31:35;14.90;99.90
11035;DHT22;5571;48.110;-1.706;2023-05-07T02:34:01;14.80;99.90
11035;DHT22;5571;48.110;-1.706;2023-05-07T02:36:26;14.80;99.90
11035;DHT22;5571;48.110;-1.706;2023-05-07T02:38:52;14.80;99.90
11035;DHT22;5571;48.110;-1.706;2023-05-07T02:41:18;14.80;99.90
11035;DHT22;5571;48.110;-1.706;2023-05-07T02:43:43;14.80;99.90
11035;DHT22;5571;48.110;-1.706;2023-05-07T02:46:09;14.80;99.90
11035;DHT22;5571;48.110;-1.706;2023-05-07T02:48:35;14.80;99.90
11035;DHT22;5571;48.110;-1.706;2023-05-07T02:51:01;14.80;99.90
11035;DHT22;5571;48.110;-1.706;2023-05-07T02:53:27;14.80;99.90
11035;DHT22;5571;48.110;-1.706;2023-05-07T02:55:54;14.70;99.90
11035;DHT22;5571;48.110;-1.706;2023-05-07T02:58:20;14.70;99.90
11035;DHT22;5571;48.110;-1.706;2023-05-07T03:00:45;14.70;99.90
11035;DHT22;5571;48.110;-1.706;2023-05-07T03:03:11;14.60;99.90
11035;DHT22;5571;48.110;-1.706;2023-05-07T03:05:37;14.60;99.90
11035;DHT22;5571;48.110;-1.706;2023-05-07T03:08:02;14.60;99.90
11035;DHT22;5571;48.110;-1.706;2023-05-07T03:10:29;14.60;99.90
11035;DHT22;5571;48.110;-1.706;2023-05-07T03:12:55;14.60;99.90
11035;DHT22;5571;48.110;-1.706;2023-05-07T03:15:21;14.60;99.90
11035;DHT22;5571;48.110;-1.706;2023-05-07T03:17:49;14.60;99.90
11035;DHT22;5571;48.110;-1.706;2023-05-07T03:20:15;14.60;99.90
11035;DHT22;5571;48.110;-1.706;2023-05-07T03:22:41;14.60;99.90
11035;DHT22;5571;48.110;-1.706;2023-05-07T03:25:08;14.60;99.90
11035;DHT22;5571;48.110;-1.706;2023-05-07T03:27:34;14.60;99.90
11035;DHT22;5571;48.110;-1.706;2023-05-07T03:30:00;14.50;99.90
11035;DHT22;5571;48.110;-1.706;2023-05-07T03:32:26;14.50;99.90
11035;DHT22;5571;48.110;-1.706;2023-05-07T03:34:51;14.60;99.90
11035;DHT22;5571;48.110;-1.706;2023-05-07T03:37:17;14.60;99.90
11035;DHT22;5571;48.110;-1.706;2023-05-07T03:39:43;14.60;99.90
11035;DHT22;5571;48.110;-1.706;2023-05-07T03:42:10;14.60;99.90
11035;DHT22;5571;48.110;-1.706;2023-05-07T03:44:36;14.60;99.90
11035;DHT22;5571;48.110;-1.706;2023-05-07T03:47:02;14.60;99.90
11035;DHT22;5571;48.110;-1.706;2023-05-07T03:49:28;14.60;99.90
11035;DHT22;5571;48.110;-1.706;2023-05-07T03:51:53;14.60;99.90
11035;DHT22;5571;48.110;-1.706;2023-05-07T03:54:19;14.60;99.90
11035;DHT22;5571;48.110;-1.706;2023-05-07T03:56:45;14.60;99.90
11035;DHT22;5571;48.110;-1.706;2023-05-07T03:59:11;14.50;99.90
11035;DHT22;5571;48.110;-1.706;2023-05-07T04:01:37;14.50;99.90
11035;DHT22;5571;48.110;-1.706;2023-05-07T04:04:02;14.50;99.90
11035;DHT22;5571;48.110;-1.706;2023-05-07T04:06:29;14.60;99.90
11035;DHT22;5571;48.110;-1.706;2023-05-07T04:08:55;14.60;99.90
11035;DHT22;5571;48.110;-1.706;2023-05-07T04:11:21;14.60;99.90
11035;DHT22;5571;48.110;-1.706;2023-05-07T04:13:46;14.70;99.90
11035;DHT22;5571;48.110;-1.706;2023-05-07T04:16:12;14.70;99.90
11035;DHT22;5571;48.110;-1.706;2023-05-07T04:18:38;14.70;99.90
11035;DHT22;5571;48.110;-1.706;2023-05-07T04:21:04;14.80;99.90
11035;DHT22;5571;48.110;-1.706;2023-05-07T04:23:29;14.80;99.90
11035;DHT22;5571;48.110;-1.706;2023-05-07T04:25:55;14.80;99.90
11035;DHT22;5571;48.110;-1.706;2023-05-07T04:28:21;14.70;99.90
11035;DHT22;5571;48.110;-1.706;2023-05-07T04:30:47;14.70;99.90
11035;DHT22;5571;48.110;-1.706;2023-05-07T04:33:14;14.70;99.90
11035;DHT22;5571;48.110;-1.706;2023-05-07T04:35:42;14.70;99.90
11035;DHT22;5571;48.110;-1.706;2023-05-07T04:38:07;14.70;99.90
11035;DHT22;5571;48.110;-1.706;2023-05-07T04:40:35;14.70;99.90
11035;DHT22;5571;48.110;-1.706;2023-05-07T04:43:00;14.70;99.90
11035;DHT22;5571;48.110;-1.706;2023-05-07T04:45:26;14.70;99.90
11035;DHT22;5571;48.110;-1.706;2023-05-07T04:47:52;14.70;99.90
11035;DHT22;5571;48.110;-1.706;2023-05-07T04:50:17;14.60;99.90
11035;DHT22;5571;48.110;-1.706;2023-05-07T04:52:44;14.60;99.90
11035;DHT22;5571;48.110;-1.706;2023-05-07T04:55:10;14.70;99.90
11035;DHT22;5571;48.110;-1.706;2023-05-07T04:57:36;14.70;99.90
11035;DHT22;5571;48.110;-1.706;2023-05-07T05:00:03;14.70;99.90
11035;DHT22;5571;48.110;-1.706;2023-05-07T05:02:29;14.80;99.90
11035;DHT22;5571;48.110;-1.706;2023-05-07T05:04:55;14.80;99.90
11035;DHT22;5571;48.110;-1.706;2023-05-07T05:07:20;14.70;99.90
11035;DHT22;5571;48.110;-1.706;2023-05-07T05:09:46;14.70;99.90
11035;DHT22;5571;48.110;-1.706;2023-05-07T05:12:12;14.80;99.90
11035;DHT22;5571;48.110;-1.706;2023-05-07T05:14:37;14.80;99.90
11035;DHT22;5571;48.110;-1.706;2023-05-07T05:17:03;14.80;99.90
11035;DHT22;5571;48.110;-1.706;2023-05-07T05:19:28;14.90;99.90
11035;DHT22;5571;48.110;-1.706;2023-05-07T05:21:54;14.90;99.90
11035;DHT22;5571;48.110;-1.706;2023-05-07T05:24:20;14.90;99.90
11035;DHT22;5571;48.110;-1.706;2023-05-07T05:26:46;14.90;99.90
11035;DHT22;5571;48.110;-1.706;2023-05-07T05:29:11;14.90;99.90
11035;DHT22;5571;48.110;-1.706;2023-05-07T05:31:37;14.90;99.90
11035;DHT22;5571;48.110;-1.706;2023-05-07T05:34:02;15.00;99.90
11035;DHT22;5571;48.110;-1.706;2023-05-07T05:36:29;15.00;99.90
11035;DHT22;5571;48.110;-1.706;2023-05-07T05:38:55;15.00;99.90
11035;DHT22;5571;48.110;-1.706;2023-05-07T05:41:20;15.00;99.90
11035;DHT22;5571;48.110;-1.706;2023-05-07T05:43:47;15.00;99.90
11035;DHT22;5571;48.110;-1.706;2023-05-07T05:46:12;15.00;99.90
11035;DHT22;5571;48.110;-1.706;2023-05-07T05:48:38;15.00;99.90
11035;DHT22;5571;48.110;-1.706;2023-05-07T05:51:03;15.00;99.90
11035;DHT22;5571;48.110;-1.706;2023-05-07T05:53:29;15.00;99.90
11035;DHT22;5571;48.110;-1.706;2023-05-07T05:55:55;15.00;99.90
11035;DHT22;5571;48.110;-1.706;2023-05-07T05:58:20;15.00;99.90
11035;DHT22;5571;48.110;-1.706;2023-05-07T06:00:46;15.00;99.90
11035;DHT22;5571;48.110;-1.706;2023-05-07T06:03:13;15.00;99.90
11035;DHT22;5571;48.110;-1.706;2023-05-07T06:05:39;15.00;99.90
11035;DHT22;5571;48.110;-1.706;2023-05-07T06:08:05;15.10;99.90
11035;DHT22;5571;48.110;-1.706;2023-05-07T06:10:30;15.10;99.90
11035;DHT22;5571;48.110;-1.706;2023-05-07T06:12:56;15.10;99.90
11035;DHT22;5571;48.110;-1.706;2023-05-07T06:15:21;15.10;99.90
11035;DHT22;5571;48.110;-1.706;2023-05-07T06:17:47;15.10;99.90
11035;DHT22;5571;48.110;-1.706;2023-05-07T06:20:14;15.10;99.90
11035;DHT22;5571;48.110;-1.706;2023-05-07T06:22:39;15.10;99.90
11035;DHT22;5571;48.110;-1.706;2023-05-07T06:25:05;15.20;99.90
11035;DHT22;5571;48.110;-1.706;2023-05-07T06:27:31;15.20;99.90
11035;DHT22;5571;48.110;-1.706;2023-05-07T06:29:57;15.30;99.90
11035;DHT22;5571;48.110;-1.706;2023-05-07T06:32:23;15.40;99.90
11035;DHT22;5571;48.110;-1.706;2023-05-07T06:34:48;15.50;99.90
11035;DHT22;5571;48.110;-1.706;2023-05-07T06:37:14;15.50;99.90
11035;DHT22;5571;48.110;-1.706;2023-05-07T06:39:39;15.50;99.90
11035;DHT22;5571;48.110;-1.706;2023-05-07T06:42:05;15.50;99.90
11035;DHT22;5571;48.110;-1.706;2023-05-07T06:44:31;15.50;99.90
11035;DHT22;5571;48.110;-1.706;2023-05-07T06:46:57;15.50;99.90
11035;DHT22;5571;48.110;-1.706;2023-05-07T06:49:23;15.50;99.90
11035;DHT22;5571;48.110;-1.706;2023-05-07T06:51:48;15.50;99.90
11035;DHT22;5571;48.110;-1.706;2023-05-07T06:54:14;15.50;99.90
11035;DHT22;5571;48.110;-1.706;2023-05-07T06:56:39;15.60;99.90
11035;DHT22;5571;48.110;-1.706;2023-05-07T06:59:06;15.60;99.90
11035;DHT22;5571;48.110;-1.706;2023-05-07T07:01:32;15.70;99.90
11035;DHT22;5571;48.110;-1.706;2023-05-07T07:03:58;15.70;99.90
11035;DHT22;5571;48.110;-1.706;2023-05-07T07:06:24;15.70;99.90
11035;DHT22;5571;48.110;-1.706;2023-05-07T07:08:50;15.60;99.90
11035;DHT22;5571;48.110;-1.706;2023-05-07T07:11:16;15.70;99.90
11035;DHT22;5571;48.110;-1.706;2023-05-07T07:13:42;15.60;99.90
11035;DHT22;5571;48.110;-1.706;2023-05-07T07:16:08;15.60;99.90
11035;DHT22;5571;48.110;-1.706;2023-05-07T07:18:34;15.60;99.90
11035;DHT22;5571;48.110;-1.706;2023-05-07T07:20:59;15.60;99.90
11035;DHT22;5571;48.110;-1.706;2023-05-07T07:23:25;15.60;99.90
11035;DHT22;5571;48.110;-1.706;2023-05-07T07:25:51;15.60;99.90
11035;DHT22;5571;48.110;-1.706;2023-05-07T07:28:17;15.60;99.90
11035;DHT22;5571;48.110;-1.706;2023-05-07T07:30:42;15.70;99.90
11035;DHT22;5571;48.110;-1.706;2023-05-07T07:33:08;15.70;99.90
11035;DHT22;5571;48.110;-1.706;2023-05-07T07:35:34;15.70;99.90
11035;DHT22;5571;48.110;-1.706;2023-05-07T07:37:59;15.80;99.90
11035;DHT22;5571;48.110;-1.706;2023-05-07T07:40:25;15.80;99.90
11035;DHT22;5571;48.110;-1.706;2023-05-07T07:42:52;15.80;99.90
11035;DHT22;5571;48.110;-1.706;2023-05-07T07:45:17;15.70;99.90
11035;DHT22;5571;48.110;-1.706;2023-05-07T07:47:43;15.60;99.90
11035;DHT22;5571;48.110;-1.706;2023-05-07T07:50:09;15.60;99.90
11035;DHT22;5571;48.110;-1.706;2023-05-07T07:52:35;15.60;99.90
11035;DHT22;5571;48.110;-1.706;2023-05-07T07:55:01;15.60;99.90
11035;DHT22;5571;48.110;-1.706;2023-05-07T07:57:27;15.70;99.90
11035;DHT22;5571;48.110;-1.706;2023-05-07T07:59:52;15.70;99.90
11035;DHT22;5571;48.110;-1.706;2023-05-07T08:02:18;15.70;99.90
11035;DHT22;5571;48.110;-1.706;2023-05-07T08:04:44;15.80;99.90
11035;DHT22;5571;48.110;-1.706;2023-05-07T08:07:11;15.80;99.90
11035;DHT22;5571;48.110;-1.706;2023-05-07T08:09:38;15.80;99.90
11035;DHT22;5571;48.110;-1.706;2023-05-07T08:12:04;15.80;99.90
11035;DHT22;5571;48.110;-1.706;2023-05-07T08:14:30;15.80;99.90
11035;DHT22;5571;48.110;-1.706;2023-05-07T08:16:56;15.80;99.90
11035;DHT22;5571;48.110;-1.706;2023-05-07T08:19:22;15.80;99.90
11035;DHT22;5571;48.110;-1.706;2023-05-07T08:21:48;15.80;99.90
11035;DHT22;5571;48.110;-1.706;2023-05-07T08:24:14;15.80;99.90
11035;DHT22;5571;48.110;-1.706;2023-05-07T08:26:40;15.80;99.90
11035;DHT22;5571;48.110;-1.706;2023-05-07T08:29:06;15.80;99.90
11035;DHT22;5571;48.110;-1.706;2023-05-07T08:31:32;15.80;99.90
11035;DHT22;5571;48.110;-1.706;2023-05-07T08:33:58;15.90;99.90
11035;DHT22;5571;48.110;-1.706;2023-05-07T08:36:25;15.90;99.90
11035;DHT22;5571;48.110;-1.706;2023-05-07T08:38:52;16.00;99.90
11035;DHT22;5571;48.110;-1.706;2023-05-07T08:41:18;16.00;99.90
11035;DHT22;5571;48.110;-1.706;2023-05-07T08:43:47;16.10;99.90
11035;DHT22;5571;48.110;-1.706;2023-05-07T08:46:17;16.30;99.90
11035;DHT22;5571;48.110;-1.706;2023-05-07T08:48:44;16.50;99.90
11035;DHT22;5571;48.110;-1.706;2023-05-07T08:51:13;16.80;99.90
11035;DHT22;5571;48.110;-1.706;2023-05-07T08:53:41;16.90;99.90
11035;DHT22;5571;48.110;-1.706;2023-05-07T08:56:08;17.00;99.90
11035;DHT22;5571;48.110;-1.706;2023-05-07T08:58:34;17.10;99.90
11035;DHT22;5571;48.110;-1.706;2023-05-07T09:01:05;17.20;99.90
11035;DHT22;5571;48.110;-1.706;2023-05-07T09:03:32;17.20;99.90
11035;DHT22;5571;48.110;-1.706;2023-05-07T09:05:59;17.40;99.90
11035;DHT22;5571;48.110;-1.706;2023-05-07T09:08:27;17.40;99.90
11035;DHT22;5571;48.110;-1.706;2023-05-07T09:10:53;17.40;99.90
11035;DHT22;5571;48.110;-1.706;2023-05-07T09:13:19;17.40;99.90
11035;DHT22;5571;48.110;-1.706;2023-05-07T09:15:45;17.30;99.90
11035;DHT22;5571;48.110;-1.706;2023-05-07T09:18:10;17.30;99.90
11035;DHT22;5571;48.110;-1.706;2023-05-07T09:20:37;17.40;99.90
11035;DHT22;5571;48.110;-1.706;2023-05-07T09:23:03;17.20;99.90
11035;DHT22;5571;48.110;-1.706;2023-05-07T09:25:31;17.20;99.90
11035;DHT22;5571;48.110;-1.706;2023-05-07T09:27:57;17.40;99.90
11035;DHT22;5571;48.110;-1.706;2023-05-07T09:30:22;17.50;99.90
11035;DHT22;5571;48.110;-1.706;2023-05-07T09:32:48;17.60;99.90
11035;DHT22;5571;48.110;-1.706;2023-05-07T09:35:17;17.80;99.90
11035;DHT22;5571;48.110;-1.706;2023-05-07T09:37:43;17.80;99.90
11035;DHT22;5571;48.110;-1.706;2023-05-07T09:40:23;17.80;99.90
11035;DHT22;5571;48.110;-1.706;2023-05-07T09:42:49;17.70;99.90
11035;DHT22;5571;48.110;-1.706;2023-05-07T09:45:35;17.60;99.90
11035;DHT22;5571;48.110;-1.706;2023-05-07T09:48:04;17.60;99.90
11035;DHT22;5571;48.110;-1.706;2023-05-07T09:50:36;17.40;99.90
11035;DHT22;5571;48.110;-1.706;2023-05-07T09:53:03;17.40;99.90
11035;DHT22;5571;48.110;-1.706;2023-05-07T09:55:29;17.40;99.90
11035;DHT22;5571;48.110;-1.706;2023-05-07T09:57:55;17.40;99.90
11035;DHT22;5571;48.110;-1.706;2023-05-07T10:00:22;17.40;99.90
11035;DHT22;5571;48.110;-1.706;2023-05-07T10:02:51;17.30;99.90
11035;DHT22;5571;48.110;-1.706;2023-05-07T10:05:21;17.20;99.90
11035;DHT22;5571;48.110;-1.706;2023-05-07T10:07:47;17.10;99.90
11035;DHT22;5571;48.110;-1.706;2023-05-07T10:10:14;17.10;99.90
11035;DHT22;5571;48.110;-1.706;2023-05-07T10:12:41;17.10;99.90
11035;DHT22;5571;48.110;-1.706;2023-05-07T10:15:08;17.10;99.90
11035;DHT22;5571;48.110;-1.706;2023-05-07T10:17:39;17.20;99.90
11035;DHT22;5571;48.110;-1.706;2023-05-07T10:20:07;17.30;99.90
11035;DHT22;5571;48.110;-1.706;2023-05-07T10:22:39;17.40;99.90
11035;DHT22;5571;48.110;-1.706;2023-05-07T10:25:28;17.50;99.90
11035;DHT22;5571;48.110;-1.706;2023-05-07T10:27:59;17.40;99.90
11035;DHT22;5571;48.110;-1.706;2023-05-07T10:33:15;17.30;99.90
11035;DHT22;5571;48.110;-1.706;2023-05-07T10:35:44;17.40;99.90
11035;DHT22;5571;48.110;-1.706;2023-05-07T10:38:10;17.50;99.90
11035;DHT22;5571;48.110;-1.706;2023-05-07T10:40:36;17.50;99.90
11035;DHT22;5571;48.110;-1.706;2023-05-07T10:43:04;17.60;99.90
11035;DHT22;5571;48.110;-1.706;2023-05-07T10:45:31;17.60;99.90
11035;DHT22;5571;48.110;-1.706;2023-05-07T10:48:16;17.50;99.90
11035;DHT22;5571;48.110;-1.706;2023-05-07T10:50:45;17.40;99.90
11035;DHT22;5571;48.110;-1.706;2023-05-07T10:55:48;17.50;99.90
11035;DHT22;5571;48.110;-1.706;2023-05-07T10:58:29;17.50;99.90
11035;DHT22;5571;48.110;-1.706;2023-05-07T11:01:00;17.50;99.90
11035;DHT22;5571;48.110;-1.706;2023-05-07T11:03:27;17.60;99.90
11035;DHT22;5571;48.110;-1.706;2023-05-07T11:06:11;17.60;99.90
11035;DHT22;5571;48.110;-1.706;2023-05-07T11:08:56;17.60;99.90
11035;DHT22;5571;48.110;-1.706;2023-05-07T11:11:49;17.60;99.90
11035;DHT22;5571;48.110;-1.706;2023-05-07T11:17:08;17.90;99.90
11035;DHT22;5571;48.110;-1.706;2023-05-07T11:19:51;17.90;99.90
11035;DHT22;5571;48.110;-1.706;2023-05-07T11:25:06;18.30;99.90
11035;DHT22;5571;48.110;-1.706;2023-05-07T11:27:32;18.40;99.90
11035;DHT22;5571;48.110;-1.706;2023-05-07T11:29:59;18.40;99.90
11035;DHT22;5571;48.110;-1.706;2023-05-07T11:32:27;18.50;99.90
11035;DHT22;5571;48.110;-1.706;2023-05-07T11:34:54;18.70;99.90
11035;DHT22;5571;48.110;-1.706;2023-05-07T11:37:22;18.70;99.90
11035;DHT22;5571;48.110;-1.706;2023-05-07T11:39:48;18.70;99.90
11035;DHT22;5571;48.110;-1.706;2023-05-07T11:42:28;18.70;99.90
11035;DHT22;5571;48.110;-1.706;2023-05-07T11:44:54;18.60;99.90
11035;DHT22;5571;48.110;-1.706;2023-05-07T11:47:20;18.50;99.90
11035;DHT22;5571;48.110;-1.706;2023-05-07T11:49:50;18.40;99.90
11035;DHT22;5571;48.110;-1.706;2023-05-07T11:52:19;18.30;99.90
11035;DHT22;5571;48.110;-1.706;2023-05-07T11:54:56;18.20;99.90
11035;DHT22;5571;48.110;-1.706;2023-05-07T11:57:25;18.10;99.90
11035;DHT22;5571;48.110;-1.706;2023-05-07T11:59:58;18.00;99.90
11035;DHT22;5571;48.110;-1.706;2023-05-07T12:02:24;18.00;99.90
11035;DHT22;5571;48.110;-1.706;2023-05-07T12:04:54;18.00;99.90
11035;DHT22;5571;48.110;-1.706;2023-05-07T12:07:20;18.00;99.90
11035;DHT22;5571;48.110;-1.706;2023-05-07T12:09:46;18.10;99.90
11035;DHT22;5571;48.110;-1.706;2023-05-07T12:12:13;18.00;99.90
11035;DHT22;5571;48.110;-1.706;2023-05-07T12:14:45;17.90;99.90
11035;DHT22;5571;48.110;-1.706;2023-05-07T12:17:12;17.90;99.90
11035;DHT22;5571;48.110;-1.706;2023-05-07T12:19:40;17.80;99.90
11035;DHT22;5571;48.110;-1.706;2023-05-07T12:22:10;17.70;99.90
11035;DHT22;5571;48.110;-1.706;2023-05-07T12:24:50;17.70;99.90
11035;DHT22;5571;48.110;-1.706;2023-05-07T12:27:21;17.70;99.90
11035;DHT22;5571;48.110;-1.706;2023-05-07T12:29:48;17.70;99.90
11035;DHT22;5571;48.110;-1.706;2023-05-07T12:32:18;17.70;99.90
11035;DHT22;5571;48.110;-1.706;2023-05-07T12:34:45;17.80;99.90
11035;DHT22;5571;48.110;-1.706;2023-05-07T12:37:11;17.80;99.90
11035;DHT22;5571;48.110;-1.706;2023-05-07T12:39:48;17.80;99.90
11035;DHT22;5571;48.110;-1.706;2023-05-07T12:42:20;17.80;99.90
11035;DHT22;5571;48.110;-1.706;2023-05-07T12:44:50;17.70;99.90
11035;DHT22;5571;48.110;-1.706;2023-05-07T12:47:16;17.80;99.90
11035;DHT22;5571;48.110;-1.706;2023-05-07T12:49:42;17.80;99.90
11035;DHT22;5571;48.110;-1.706;2023-05-07T12:52:08;17.90;99.90
11035;DHT22;5571;48.110;-1.706;2023-05-07T12:54:37;18.10;99.90
11035;DHT22;5571;48.110;-1.706;2023-05-07T12:57:09;18.40;99.90
11035;DHT22;5571;48.110;-1.706;2023-05-07T12:59:39;18.50;99.90
11035;DHT22;5571;48.110;-1.706;2023-05-07T13:02:05;18.80;99.90
11035;DHT22;5571;48.110;-1.706;2023-05-07T13:04:31;19.00;99.90
11035;DHT22;5571;48.110;-1.706;2023-05-07T13:06:58;19.20;99.90
11035;DHT22;5571;48.110;-1.706;2023-05-07T13:09:24;19.20;99.90
11035;DHT22;5571;48.110;-1.706;2023-05-07T13:11:49;19.20;99.90
11035;DHT22;5571;48.110;-1.706;2023-05-07T13:14:15;19.10;99.90
11035;DHT22;5571;48.110;-1.706;2023-05-07T13:16:41;19.20;99.90
11035;DHT22;5571;48.110;-1.706;2023-05-07T13:19:06;19.30;99.90
11035;DHT22;5571;48.110;-1.706;2023-05-07T13:21:32;19.70;99.90
11035;DHT22;5571;48.110;-1.706;2023-05-07T13:23:58;20.10;99.90
11035;DHT22;5571;48.110;-1.706;2023-05-07T13:26:24;20.50;99.90
11035;DHT22;5571;48.110;-1.706;2023-05-07T13:28:50;20.90;99.90
11035;DHT22;5571;48.110;-1.706;2023-05-07T13:31:17;20.90;99.90
11035;DHT22;5571;48.110;-1.706;2023-05-07T13:33:42;20.70;99.90
11035;DHT22;5571;48.110;-1.706;2023-05-07T13:36:08;20.60;99.90
11035;DHT22;5571;48.110;-1.706;2023-05-07T13:38:34;20.60;99.90
11035;DHT22;5571;48.110;-1.706;2023-05-07T13:41:00;20.90;99.90
11035;DHT22;5571;48.110;-1.706;2023-05-07T13:43:26;21.20;99.90
11035;DHT22;5571;48.110;-1.706;2023-05-07T13:45:51;21.60;99.90
11035;DHT22;5571;48.110;-1.706;2023-05-07T13:48:17;22.10;99.90
11035;DHT22;5571;48.110;-1.706;2023-05-07T13:50:42;22.20;99.90
11035;DHT22;5571;48.110;-1.706;2023-05-07T13:53:08;22.10;99.90
11035;DHT22;5571;48.110;-1.706;2023-05-07T13:55:34;21.80;99.90
11035;DHT22;5571;48.110;-1.706;2023-05-07T13:58:01;21.70;99.90
11035;DHT22;5571;48.110;-1.706;2023-05-07T14:00:28;21.90;99.90
11035;DHT22;5571;48.110;-1.706;2023-05-07T14:02:55;21.90;99.90
11035;DHT22;5571;48.110;-1.706;2023-05-07T14:05:20;21.60;99.90
11035;DHT22;5571;48.110;-1.706;2023-05-07T14:07:48;21.40;99.90
11035;DHT22;5571;48.110;-1.706;2023-05-07T14:10:17;21.10;99.90
11035;DHT22;5571;48.110;-1.706;2023-05-07T14:12:44;20.80;99.90
11035;DHT22;5571;48.110;-1.706;2023-05-07T14:15:10;20.50;99.90
11035;DHT22;5571;48.110;-1.706;2023-05-07T14:17:36;20.30;99.90
11035;DHT22;5571;48.110;-1.706;2023-05-07T14:20:02;20.20;99.90
11035;DHT22;5571;48.110;-1.706;2023-05-07T14:22:28;19.90;99.90
11035;DHT22;5571;48.110;-1.706;2023-05-07T14:24:53;19.90;99.90
11035;DHT22;5571;48.110;-1.706;2023-05-07T14:27:19;19.80;99.90
11035;DHT22;5571;48.110;-1.706;2023-05-07T14:29:44;19.80;99.90
11035;DHT22;5571;48.110;-1.706;2023-05-07T14:32:11;19.80;99.90
11035;DHT22;5571;48.110;-1.706;2023-05-07T14:34:36;19.80;99.90
11035;DHT22;5571;48.110;-1.706;2023-05-07T14:37:02;19.80;99.90
11035;DHT22;5571;48.110;-1.706;2023-05-07T14:39:28;19.80;99.90
11035;DHT22;5571;48.110;-1.706;2023-05-07T14:41:53;19.80;99.90
11035;DHT22;5571;48.110;-1.706;2023-05-07T14:44:21;20.00;99.90
11035;DHT22;5571;48.110;-1.706;2023-05-07T14:46:47;19.90;99.90
11035;DHT22;5571;48.110;-1.706;2023-05-07T14:49:14;19.90;99.90
11035;DHT22;5571;48.110;-1.706;2023-05-07T14:51:43;19.70;99.90
11035;DHT22;5571;48.110;-1.706;2023-05-07T14:54:10;19.70;99.90
11035;DHT22;5571;48.110;-1.706;2023-05-07T14:56:35;19.80;99.90
11035;DHT22;5571;48.110;-1.706;2023-05-07T14:59:02;20.00;99.90
11035;DHT22;5571;48.110;-1.706;2023-05-07T15:01:28;20.20;99.90
11035;DHT22;5571;48.110;-1.706;2023-05-07T15:03:54;20.50;99.90
11035;DHT22;5571;48.110;-1.706;2023-05-07T15:06:20;20.90;99.90
11035;DHT22;5571;48.110;-1.706;2023-05-07T15:08:46;21.30;99.90
11035;DHT22;5571;48.110;-1.706;2023-05-07T15:11:12;21.60;99.90
11035;DHT22;5571;48.110;-1.706;2023-05-07T15:13:37;21.60;99.90
11035;DHT22;5571;48.110;-1.706;2023-05-07T15:16:03;21.70;99.90
11035;DHT22;5571;48.110;-1.706;2023-05-07T15:18:28;21.90;99.90
11035;DHT22;5571;48.110;-1.706;2023-05-07T15:20:55;22.10;99.90
11035;DHT22;5571;48.110;-1.706;2023-05-07T15:23:22;21.90;99.90
11035;DHT22;5571;48.110;-1.706;2023-05-07T15:25:47;21.50;99.90
11035;DHT22;5571;48.110;-1.706;2023-05-07T15:28:13;21.30;99.90
11035;DHT22;5571;48.110;-1.706;2023-05-07T15:30:39;21.10;99.90
11035;DHT22;5571;48.110;-1.706;2023-05-07T15:33:04;20.90;99.90
11035;DHT22;5571;48.110;-1.706;2023-05-07T15:35:30;20.70;99.90
11035;DHT22;5571;48.110;-1.706;2023-05-07T15:37:56;20.50;99.90